createdAt,value
2023-05-11T00:01:09.124Z,11.53
2023-05-11T00:04:10.923Z,11.63
2023-05-11T00:07:12.611Z,12.30
2023-05-11T00:10:14.309Z,11.67
2023-05-11T00:13:16.031Z,12.10
2023-05-11T00:16:17.906Z,11.60
2023-05-11T00:19:19.880Z,10.93
2023-05-11T00:22:21.632Z,10.87
2023-05-11T00:25:23.353Z,13.60
2023-05-11T00:28:25.088Z,13.13
2023-05-11T00:31:29.525Z,10.70
2023-05-11T00:34:32.038Z,11.37
2023-05-11T00:37:33.693Z,11.43
2023-05-11T00:40:35.508Z,11.50
2023-05-11T00:43:37.222Z,13.03
2023-05-11T00:46:39.394Z,11.90
2023-05-11T00:49:41.993Z,10.27
2023-05-11T00:52:43.914Z,12.40
2023-05-11T00:55:45.841Z,11.33
2023-05-11T00:58:48.440Z,12.03
2023-05-11T01:01:50.503Z,11.77
2023-05-11T01:04:52.793Z,12.77
2023-05-11T01:08:11.809Z,12.57
2023-05-11T01:11:33.906Z,11.37
2023-05-11T01:14:44.905Z,13.03
2023-05-11T01:18:11.698Z,10.40
2023-05-11T01:21:16.507Z,10.73
2023-05-11T01:25:14.314Z,9.87
2023-05-11T01:28:37.653Z,11.80
2023-05-11T01:31:42.907Z,11.77
2023-05-11T01:34:46.091Z,10.30
2023-05-11T01:37:51.483Z,9.40
2023-05-11T01:40:57.282Z,11.37
2023-05-11T01:44:03.058Z,9.93
2023-05-11T01:47:06.189Z,12.17
2023-05-11T01:50:09.554Z,9.53
2023-05-11T01:53:13.650Z,11.77
2023-05-11T01:56:16.053Z,11.53
2023-05-11T01:59:18.910Z,10.30
2023-05-11T02:02:21.637Z,10.40
2023-05-11T02:05:25.502Z,12.07
2023-05-11T02:08:29.739Z,13.07
2023-05-11T02:11:33.231Z,13.87
2023-05-11T02:14:36.865Z,14.07
2023-05-11T02:17:40.877Z,15.17
2023-05-11T02:20:44.968Z,15.47
2023-05-11T02:23:49.705Z,12.27
2023-05-11T02:26:51.394Z,15.97
2023-05-11T02:29:53.454Z,14.67
2023-05-11T02:32:57.639Z,14.20
2023-05-11T02:35:59.881Z,12.67
2023-05-11T02:39:09.477Z,15.33
2023-05-11T02:42:18.287Z,15.90
2023-05-11T02:45:20.341Z,16.37
2023-05-11T02:48:26.507Z,15.37
2023-05-11T02:51:35.846Z,16.43
2023-05-11T02:54:39.143Z,17.33
2023-05-11T02:57:41.205Z,16.07
2023-05-11T03:00:43.369Z,15.23
2023-05-11T03:03:45.433Z,15.50
2023-05-11T03:06:47.275Z,13.10
2023-05-11T03:09:49.107Z,12.60
2023-05-11T03:12:50.984Z,12.07
2023-05-11T03:15:53.643Z,13.00
2023-05-11T03:18:55.877Z,14.03
2023-05-11T03:21:59.859Z,11.00
2023-05-11T03:25:03.799Z,13.53
2023-05-11T03:28:08.506Z,11.70
2023-05-11T03:31:10.427Z,9.47
2023-05-11T03:34:12.115Z,10.83
2023-05-11T03:37:14.761Z,11.43
2023-05-11T03:40:18.407Z,10.70
2023-05-11T03:43:21.871Z,11.70
2023-05-11T03:46:24.447Z,11.53
2023-05-11T03:49:46.216Z,12.00
2023-05-11T03:52:49.115Z,10.27
2023-05-11T03:55:52.972Z,11.43
2023-05-11T03:58:54.833Z,11.37
2023-05-11T04:01:58.031Z,11.17
2023-05-11T04:04:59.691Z,11.40
2023-05-11T04:08:02.472Z,10.53
2023-05-11T04:11:04.143Z,11.03
2023-05-11T04:14:06.058Z,13.10
2023-05-11T04:17:07.720Z,9.27
2023-05-11T04:20:09.602Z,10.80
2023-05-11T04:23:11.263Z,10.63
2023-05-11T04:26:15.395Z,11.83
2023-05-11T04:29:17.074Z,13.40
2023-05-11T04:32:18.735Z,11.60
2023-05-11T04:35:21.906Z,11.63
2023-05-11T04:38:23.553Z,11.60
2023-05-11T04:41:26.006Z,12.73
2023-05-11T04:44:27.819Z,12.93
2023-05-11T04:47:29.536Z,13.17
2023-05-11T04:50:31.351Z,12.47
2023-05-11T04:53:33.312Z,12.83
2023-05-11T04:56:40.304Z,12.67
2023-05-11T04:59:42.019Z,12.47
2023-05-11T05:02:43.725Z,13.07
2023-05-11T05:05:45.547Z,9.80
2023-05-11T05:08:47.250Z,10.47
2023-05-11T05:11:48.923Z,12.10
2023-05-11T05:14:50.657Z,10.03
2023-05-11T05:17:52.466Z,10.27
2023-05-11T05:20:54.158Z,9.73
2023-05-11T05:24:20.662Z,8.93
2023-05-11T05:27:22.421Z,10.60
2023-05-11T05:30:24.098Z,14.57
2023-05-11T05:33:25.768Z,10.30
2023-05-11T05:36:27.434Z,10.90
2023-05-11T05:39:29.070Z,11.37
2023-05-11T05:42:30.889Z,10.00
2023-05-11T05:45:32.568Z,9.23
2023-05-11T05:48:34.253Z,10.23
2023-05-11T05:51:35.929Z,8.67
2023-05-11T05:54:37.606Z,11.23
2023-05-11T05:57:39.284Z,7.73
2023-05-11T06:00:41.029Z,8.73
2023-05-11T06:03:45.098Z,9.23
2023-05-11T06:06:47.413Z,11.70
2023-05-11T06:09:49.112Z,11.13
2023-05-11T06:12:50.832Z,10.90
2023-05-11T06:15:52.539Z,10.07
2023-05-11T06:18:54.232Z,10.03
2023-05-11T06:21:55.970Z,9.40
2023-05-11T06:25:03.019Z,19.53
2023-05-11T06:28:05.062Z,10.13
2023-05-11T06:31:06.766Z,8.63
2023-05-11T06:34:09.526Z,8.87
2023-05-11T06:37:11.170Z,8.37
2023-05-11T06:40:13.544Z,7.93
2023-05-11T06:43:15.242Z,7.97
2023-05-11T06:46:17.955Z,7.47
2023-05-11T06:49:19.728Z,8.37
2023-05-11T06:52:21.393Z,8.00
2023-05-11T06:55:23.269Z,7.90
2023-05-11T06:58:24.963Z,8.90
2023-05-11T07:01:36.050Z,7.90
2023-05-11T07:04:37.768Z,6.73
2023-05-11T07:07:39.488Z,6.53
2023-05-11T07:10:41.988Z,7.83
2023-05-11T07:13:45.226Z,6.70
2023-05-11T07:16:47.152Z,7.53
2023-05-11T07:19:51.211Z,26.33
2023-05-11T07:22:56.853Z,8.40
2023-05-11T07:25:58.629Z,6.57
2023-05-11T07:29:12.530Z,6.50
2023-05-11T07:32:14.212Z,5.93
2023-05-11T07:35:16.102Z,6.87
2023-05-11T07:38:18.320Z,5.30
2023-05-11T07:41:21.268Z,7.07
2023-05-11T07:44:22.928Z,4.90
2023-05-11T07:47:25.183Z,5.60
2023-05-11T07:50:27.223Z,4.70
2023-05-11T07:53:29.184Z,5.70
2023-05-11T07:56:30.851Z,5.23
2023-05-11T07:59:32.751Z,5.20
2023-05-11T08:02:34.786Z,4.97
2023-05-11T08:05:47.171Z,4.70
2023-05-11T08:08:48.921Z,5.37
2023-05-11T08:11:50.693Z,4.20
2023-05-11T08:14:52.333Z,6.63
2023-05-11T08:17:54.145Z,6.00
2023-05-11T08:20:55.833Z,4.90
2023-05-11T08:23:57.627Z,6.13
2023-05-11T08:26:59.710Z,7.43
2023-05-11T08:30:01.438Z,6.50
2023-05-11T08:33:07.859Z,4.60
2023-05-11T08:36:19.875Z,5.70
2023-05-11T08:39:43.301Z,5.67
2023-05-11T08:42:46.877Z,4.90
2023-05-11T08:45:54.881Z,5.50
2023-05-11T08:48:58.035Z,5.30
2023-05-11T08:52:03.045Z,6.53
2023-05-11T08:55:05.161Z,7.47
2023-05-11T08:58:07.743Z,6.73
2023-05-11T09:01:12.116Z,6.43
2023-05-11T09:04:15.320Z,5.97
2023-05-11T09:07:17.529Z,6.43
2023-05-11T09:10:19.808Z,4.43
2023-05-11T09:13:21.887Z,5.10
2023-05-11T09:16:36.252Z,5.73
2023-05-11T09:20:00.922Z,5.27
2023-05-11T09:23:07.404Z,6.43
2023-05-11T09:26:36.111Z,6.70
2023-05-11T09:29:37.780Z,6.03
2023-05-11T09:32:53.150Z,4.80
2023-05-11T09:35:55.011Z,5.60
2023-05-11T09:39:02.660Z,4.83
2023-05-11T09:42:21.955Z,4.70
2023-05-11T09:45:43.346Z,3.40
2023-05-11T09:48:45.083Z,4.00
2023-05-11T09:51:47.167Z,4.13
2023-05-11T09:54:51.427Z,3.23
2023-05-11T09:57:55.742Z,3.50
2023-05-11T10:00:57.735Z,4.77
2023-05-11T10:04:20.550Z,3.93
2023-05-11T10:07:30.224Z,4.23
2023-05-11T10:10:35.125Z,4.33
2023-05-11T10:13:39.956Z,4.73
2023-05-11T10:16:43.098Z,4.30
2023-05-11T10:19:46.300Z,4.27
2023-05-11T10:22:49.655Z,4.27
2023-05-11T10:25:53.614Z,4.83
2023-05-11T10:28:55.612Z,3.50
2023-05-11T10:31:58.317Z,3.87
2023-05-11T10:35:00.283Z,6.27
2023-05-11T10:38:02.156Z,4.67
2023-05-11T10:41:21.710Z,5.27
2023-05-11T10:44:59.995Z,4.90
2023-05-11T10:48:42.431Z,5.80
2023-05-11T10:52:12.952Z,5.87
2023-05-11T10:55:31.164Z,5.77
2023-05-11T10:58:42.540Z,5.53
2023-05-11T11:01:45.733Z,5.37
2023-05-11T11:04:52.042Z,5.80
2023-05-11T11:08:03.911Z,5.90
2023-05-11T11:11:29.121Z,5.83
2023-05-11T11:14:58.485Z,6.03
2023-05-11T11:18:22.182Z,14.57
2023-05-11T11:21:41.359Z,6.00
2023-05-11T11:24:44.762Z,7.10
2023-05-11T11:27:49.525Z,6.40
2023-05-11T11:31:27.970Z,5.90
2023-05-11T11:34:29.849Z,6.97
2023-05-11T11:38:14.623Z,5.27
2023-05-11T11:41:29.304Z,5.83
2023-05-11T11:44:34.174Z,5.63
2023-05-11T11:47:36.152Z,10.40
2023-05-11T11:50:38.751Z,7.87
2023-05-11T11:53:44.523Z,6.30
2023-05-11T11:56:46.642Z,6.97
2023-05-11T11:59:48.877Z,7.97
2023-05-11T12:02:50.824Z,5.50
2023-05-11T12:05:57.762Z,9.07
2023-05-11T12:08:59.574Z,4.00
2023-05-11T12:12:02.312Z,4.33
2023-05-11T12:15:04.674Z,4.60
2023-05-11T12:18:06.567Z,5.07
2023-05-11T12:21:22.114Z,4.37
2023-05-11T12:24:24.276Z,4.40
2023-05-11T12:27:25.984Z,4.80
2023-05-11T12:30:30.339Z,4.83
2023-05-11T12:33:32.025Z,4.60
2023-05-11T12:36:34.696Z,5.37
2023-05-11T12:39:36.476Z,6.43
2023-05-11T12:42:38.140Z,3.60
2023-05-11T12:45:39.837Z,5.80
2023-05-11T12:48:41.620Z,4.80
2023-05-11T12:52:02.537Z,3.83
2023-05-11T12:55:04.456Z,4.20
2023-05-11T12:58:12.450Z,4.30
2023-05-11T13:01:14.187Z,4.03
2023-05-11T13:04:16.836Z,4.50
2023-05-11T13:08:04.198Z,3.57
2023-05-11T13:11:24.169Z,3.87
2023-05-11T13:14:25.839Z,3.43
2023-05-11T13:17:31.655Z,3.07
2023-05-11T13:20:34.118Z,3.80
2023-05-11T13:23:37.171Z,3.33
2023-05-11T13:26:38.858Z,2.87
2023-05-11T13:29:40.525Z,2.67
2023-05-11T13:32:42.255Z,3.80
2023-05-11T13:35:44.949Z,2.80
2023-05-11T13:38:46.591Z,2.87
2023-05-11T13:41:48.558Z,4.10
2023-05-11T13:44:50.259Z,2.43
2023-05-11T13:47:52.514Z,3.33
2023-05-11T13:50:54.214Z,4.93
2023-05-11T13:53:55.884Z,5.00
2023-05-11T13:56:58.074Z,5.47
2023-05-11T13:59:59.734Z,3.80
2023-05-11T14:03:01.663Z,4.07
2023-05-11T14:06:03.760Z,5.00
2023-05-11T14:09:05.678Z,7.53
2023-05-11T14:12:07.530Z,6.00
2023-05-11T14:15:09.844Z,7.03
2023-05-11T14:18:12.873Z,7.50
2023-05-11T14:21:14.758Z,7.13
2023-05-11T14:24:16.451Z,7.63
2023-05-11T14:27:18.106Z,9.57
2023-05-11T14:30:20.094Z,9.37
2023-05-11T14:33:21.900Z,9.97
2023-05-11T14:36:23.780Z,10.53
2023-05-11T14:39:26.153Z,9.90
2023-05-11T14:42:29.669Z,11.53
2023-05-11T14:45:32.356Z,10.70
2023-05-11T14:48:34.002Z,12.00
2023-05-11T14:51:38.772Z,11.00
2023-05-11T14:54:42.414Z,11.20
2023-05-11T14:57:44.063Z,11.83
2023-05-11T15:00:45.748Z,11.43
2023-05-11T15:03:47.664Z,9.17
2023-05-11T15:06:49.472Z,10.50
2023-05-11T15:09:54.749Z,9.53
2023-05-11T15:12:56.473Z,10.97
2023-05-11T15:15:58.218Z,11.77
2023-05-11T15:19:00.133Z,10.87
2023-05-11T15:22:01.955Z,11.60
2023-05-11T15:25:04.241Z,10.97
2023-05-11T15:28:06.201Z,11.93
2023-05-11T15:31:07.905Z,10.57
2023-05-11T15:34:09.825Z,10.60
2023-05-11T15:37:11.572Z,10.53
2023-05-11T15:40:13.708Z,9.87
2023-05-11T15:43:15.775Z,12.27
2023-05-11T15:46:17.484Z,9.27
2023-05-11T15:49:19.250Z,10.73
2023-05-11T15:52:20.957Z,10.90
2023-05-11T15:55:23.434Z,10.53
2023-05-11T15:58:25.170Z,10.53
2023-05-11T16:01:26.848Z,11.10
2023-05-11T16:08:50.719Z,12.53
2023-05-11T16:11:52.381Z,11.30
2023-05-11T16:14:54.408Z,12.03
2023-05-11T16:17:56.482Z,13.47
2023-05-11T16:20:58.164Z,15.27
2023-05-11T16:24:00.100Z,13.67
2023-05-11T16:27:01.868Z,13.63
2023-05-11T16:30:14.274Z,13.83
2023-05-11T16:33:24.346Z,12.40
2023-05-11T16:36:26.000Z,12.33
2023-05-11T16:39:27.704Z,13.07
2023-05-11T16:42:29.365Z,12.67
2023-05-11T16:45:31.008Z,12.80
2023-05-11T16:48:32.687Z,12.67
2023-05-11T16:51:34.446Z,13.40
2023-05-11T16:54:36.092Z,12.20
2023-05-11T16:57:37.841Z,12.23
2023-05-11T17:00:39.512Z,13.27
2023-05-11T17:03:41.990Z,11.63
2023-05-11T17:06:43.805Z,10.87
2023-05-11T17:09:45.736Z,9.00
2023-05-11T17:12:47.479Z,9.17
2023-05-11T17:15:51.414Z,9.50
2023-05-11T17:18:53.645Z,8.90
2023-05-11T17:21:55.312Z,10.93
2023-05-11T17:24:57.161Z,9.77
2023-05-11T17:27:58.847Z,9.73
2023-05-11T17:31:11.653Z,9.00
2023-05-11T17:34:13.609Z,7.93
2023-05-11T17:37:30.541Z,7.87
2023-05-11T17:40:33.334Z,8.43
2023-05-11T17:43:36.396Z,7.77
2023-05-11T17:46:38.300Z,7.53
2023-05-11T17:49:40.033Z,7.03
2023-05-11T17:52:42.002Z,7.77
2023-05-11T17:55:43.752Z,6.97
2023-05-11T17:58:45.715Z,7.30
2023-05-11T18:01:47.505Z,6.90
2023-05-11T18:04:49.239Z,6.87
2023-05-11T18:07:50.859Z,7.07
2023-05-11T18:10:52.517Z,7.43
2023-05-11T18:13:54.234Z,6.73
2023-05-11T18:16:56.156Z,6.93
2023-05-11T18:19:57.808Z,6.20
2023-05-11T18:22:59.728Z,7.07
2023-05-11T18:26:01.428Z,7.17
2023-05-11T18:29:03.171Z,8.47
2023-05-11T18:32:05.186Z,7.83
2023-05-11T18:35:07.144Z,8.07
2023-05-11T18:38:08.841Z,9.77
2023-05-11T18:41:10.777Z,9.20
2023-05-11T18:44:14.032Z,7.03
2023-05-11T18:47:15.786Z,6.70
2023-05-11T18:50:17.660Z,7.50
2023-05-11T18:53:19.514Z,8.50
2023-05-11T18:56:22.179Z,7.20
2023-05-11T18:59:23.850Z,8.10
2023-05-11T19:02:25.548Z,8.23
2023-05-11T19:05:27.577Z,8.73
2023-05-11T19:08:29.687Z,8.20
2023-05-11T19:11:31.392Z,8.53
2023-05-11T19:14:34.772Z,9.00
2023-05-11T19:17:36.472Z,9.87
2023-05-11T19:20:39.328Z,11.30
2023-05-11T19:23:41.172Z,13.10
2023-05-11T19:26:49.433Z,12.17
2023-05-11T19:29:56.991Z,12.03
2023-05-11T19:32:59.083Z,13.57
2023-05-11T19:36:00.974Z,12.17
2023-05-11T19:39:04.333Z,13.03
2023-05-11T19:42:06.158Z,11.60
2023-05-11T19:45:11.408Z,11.00
2023-05-11T19:48:13.697Z,8.77
2023-05-11T19:51:15.873Z,8.10
2023-05-11T19:54:17.558Z,9.13
2023-05-11T19:57:19.767Z,7.27
2023-05-11T20:00:25.028Z,6.03
2023-05-11T20:03:28.742Z,7.93
2023-05-11T20:06:31.788Z,5.37
2023-05-11T20:09:33.492Z,5.60
2023-05-11T20:12:35.415Z,4.70
2023-05-11T20:15:37.131Z,4.77
2023-05-11T20:18:38.899Z,4.50
2023-05-11T20:21:40.654Z,4.33
2023-05-11T20:24:42.391Z,3.90
2023-05-11T20:27:44.093Z,4.20
2023-05-11T20:30:45.941Z,4.20
2023-05-11T20:36:53.790Z,4.43
2023-05-11T20:39:55.438Z,4.60
2023-05-11T20:42:57.064Z,4.37
2023-05-11T20:46:03.511Z,4.43
2023-05-11T20:49:06.029Z,4.60
2023-05-11T20:52:08.721Z,4.37
2023-05-11T20:55:49.289Z,4.50
2023-05-11T20:58:50.923Z,4.23
2023-05-11T21:01:52.623Z,4.03
2023-05-11T21:04:54.588Z,4.47
2023-05-11T21:07:57.287Z,4.07
2023-05-11T21:10:59.465Z,4.10
2023-05-11T21:14:01.181Z,4.40
2023-05-11T21:17:02.891Z,4.27
2023-05-11T21:20:05.183Z,4.57
2023-05-11T21:23:07.004Z,4.40
2023-05-11T21:26:08.659Z,4.50
2023-05-11T21:29:12.127Z,5.77
2023-05-11T21:32:13.849Z,4.70
2023-05-11T21:35:16.683Z,4.93
2023-05-11T21:38:18.409Z,4.37
2023-05-11T21:41:20.158Z,5.00
2023-05-11T21:44:21.865Z,3.67
2023-05-11T21:47:23.548Z,4.20
2023-05-11T21:50:25.642Z,4.40
2023-05-11T21:53:27.355Z,4.77
2023-05-11T21:56:29.028Z,3.90
2023-05-11T21:59:30.822Z,3.70
2023-05-11T22:02:32.606Z,7.83
2023-05-11T22:05:34.514Z,4.20
2023-05-11T22:08:36.570Z,4.27
2023-05-11T22:11:39.057Z,5.70
2023-05-11T22:14:41.363Z,4.07
2023-05-11T22:17:43.236Z,4.47
2023-05-11T22:20:44.950Z,4.57
2023-05-11T22:23:46.693Z,4.83
2023-05-11T22:26:48.341Z,6.57
2023-05-11T22:29:52.076Z,4.50
2023-05-11T22:32:53.994Z,4.90
2023-05-11T22:35:55.827Z,4.77
2023-05-11T22:38:57.491Z,3.80
2023-05-11T22:41:59.439Z,4.17
2023-05-11T22:45:01.257Z,4.37
2023-05-11T22:48:03.093Z,3.70
2023-05-11T22:51:06.255Z,3.43
2023-05-11T22:54:07.956Z,3.90
2023-05-11T22:57:11.390Z,4.40
2023-05-11T23:00:13.432Z,3.77
2023-05-11T23:03:15.191Z,3.60
2023-05-11T23:06:16.875Z,4.70
2023-05-11T23:09:18.909Z,5.50
2023-05-11T23:12:20.530Z,4.03
2023-05-11T23:15:22.223Z,4.67
2023-05-11T23:18:23.969Z,4.80
2023-05-11T23:21:25.739Z,3.80
2023-05-11T23:24:28.822Z,4.83
2023-05-11T23:27:30.478Z,4.17
2023-05-11T23:30:32.173Z,3.40
2023-05-11T23:33:34.056Z,3.70
2023-05-11T23:36:35.726Z,4.53
2023-05-11T23:39:38.358Z,4.40
2023-05-11T23:42:40.008Z,4.23
2023-05-11T23:45:41.869Z,4.43
2023-05-11T23:48:43.534Z,4.30
2023-05-11T23:51:45.252Z,4.27
2023-05-11T23:54:46.964Z,5.40
2023-05-11T23:57:48.581Z,3.70
